Time;durP1;ratioP1;P1;durP2;ratioP2;P2;SDS_P1;SDS_P2;PMS_P1;PMS_P2;Temp;Humidity;BMP_temperature;BMP_pressure;BME280_temperature;BME280_humidity;BME280_pressure;Samples;Min_cycle;Max_cycle;Signal;HPM_P1;HPM_P2
2022/04/06 00:01:56;;;;;;;2.87;2.67;;;;;;;;;;5013845;28;20223;-66
2022/04/06 00:04:24;;;;;;;2.80;2.60;;;;;;;;;;5014228;28;20195;-65
2022/04/06 00:06:53;;;;;;;3.00;2.80;;;;;;;;;;5013055;28;20199;-65
2022/04/06 00:09:21;;;;;;;3.73;3.00;;;;;;;;;;5012995;28;20677;-64
2022/04/06 00:11:48;;;;;;;3.17;2.87;;;;;;;;;;5012675;28;20231;-65
2022/04/06 00:14:16;;;;;;;3.00;2.80;;;;;;;;;;5011776;28;20214;-65
2022/04/06 00:16:44;;;;;;;3.43;3.20;;;;;;;;;;5012407;28;20627;-65
2022/04/06 00:19:11;;;;;;;2.80;2.60;;;;;;;;;;5019670;28;20285;-65
2022/04/06 00:21:39;;;;;;;3.10;2.90;;;;;;;;;;5014859;28;20288;-64
2022/04/06 00:24:06;;;;;;;2.90;2.70;;;;;;;;;;5014636;28;20286;-65
2022/04/06 00:26:35;;;;;;;2.80;2.60;;;;;;;;;;5017821;28;20211;-65
2022/04/06 00:29:03;;;;;;;3.03;2.63;;;;;;;;;;5021499;28;20211;-65
2022/04/06 00:31:31;;;;;;;2.77;2.57;;;;;;;;;;5020403;28;20265;-65
2022/04/06 00:33:59;;;;;;;3.00;2.80;;;;;;;;;;5017924;28;20292;-65
2022/04/06 00:36:26;;;;;;;3.10;2.80;;;;;;;;;;5015654;28;20215;-65
2022/04/06 00:38:54;;;;;;;3.77;2.90;;;;;;;;;;5016513;28;20226;-66
2022/04/06 00:41:21;;;;;;;3.23;2.93;;;;;;;;;;5013772;28;20238;-65
2022/04/06 00:44:08;;;;;;;3.23;2.97;;;;;;;;;;5015166;28;20273;-65
2022/04/06 00:46:35;;;;;;;4.70;2.83;;;;;;;;;;5009074;28;20728;-65
2022/04/06 00:49:03;;;;;;;2.97;2.77;;;;;;;;;;5016211;28;20246;-65
2022/04/06 00:51:31;;;;;;;3.10;2.90;;;;;;;;;;5024978;28;20826;-64
2022/04/06 00:53:59;;;;;;;3.57;3.20;;;;;;;;;;5015689;28;20221;-66
2022/04/06 00:56:26;;;;;;;3.33;3.03;;;;;;;;;;5012215;28;20298;-65
2022/04/06 00:58:54;;;;;;;3.07;2.87;;;;;;;;;;5017755;28;20309;-65
2022/04/06 01:01:21;;;;;;;3.57;3.30;;;;;;;;;;5012149;28;20695;-65
2022/04/06 01:03:49;;;;;;;3.40;3.10;;;;;;;;;;5016136;28;20209;-64
2022/04/06 01:06:16;;;;;;;3.40;3.07;;;;;;;;;;5018769;28;20616;-64
2022/04/06 01:08:44;;;;;;;3.50;3.20;;;;;;;;;;5012817;28;20273;-65
2022/04/06 01:11:11;;;;;;;3.73;3.33;;;;;;;;;;5014358;28;20294;-65
2022/04/06 01:13:40;;;;;;;3.57;3.27;;;;;;;;;;5015424;28;20668;-66
2022/04/06 01:16:08;;;;;;;3.80;3.50;;;;;;;;;;5015500;28;20230;-65
2022/04/06 01:18:36;;;;;;;3.43;3.20;;;;;;;;;;5016968;28;20216;-66
2022/04/06 01:21:04;;;;;;;3.40;3.10;;;;;;;;;;5014186;28;20199;-64
2022/04/06 01:23:31;;;;;;;3.53;3.23;;;;;;;;;;5013452;28;20267;-65
2022/04/06 01:26:00;;;;;;;3.33;3.03;;;;;;;;;;5019030;28;20636;-65
2022/04/06 01:28:27;;;;;;;3.80;3.33;;;;;;;;;;5011568;28;20470;-66
2022/04/06 01:30:54;;;;;;;3.20;2.90;;;;;;;;;;5014078;28;22139;-65
2022/04/06 01:33:22;;;;;;;2.93;2.73;;;;;;;;;;5017435;28;20233;-65
2022/04/06 01:35:50;;;;;;;3.20;2.90;;;;;;;;;;5009976;28;20299;-65
2022/04/06 01:38:17;;;;;;;3.37;3.07;;;;;;;;;;5015594;28;20221;-65
2022/04/06 01:40:45;;;;;;;3.17;2.60;;;;;;;;;;5020160;28;20215;-66
2022/04/06 01:43:12;;;;;;;3.07;2.83;;;;;;;;;;5015791;28;20253;-66
2022/04/06 01:45:40;;;;;;;3.00;2.80;;;;;;;;;;5023704;28;20251;-64
2022/04/06 01:48:07;;;;;;;3.20;3.00;;;;;;;;;;5011766;28;20310;-67
2022/04/06 01:53:20;;;;;;;2.90;2.70;;;;;;;;;;5014684;28;20218;-66
2022/04/06 01:55:48;;;;;;;3.30;3.00;;;;;;;;;;5015793;28;20207;-66
2022/04/06 01:58:15;;;;;;;3.40;3.10;;;;;;;;;;5014951;28;20199;-65
2022/04/06 02:00:43;;;;;;;3.17;2.87;;;;;;;;;;5014896;28;20198;-65
2022/04/06 02:03:11;;;;;;;3.30;3.00;;;;;;;;;;5021689;28;20589;-65
2022/04/06 02:05:38;;;;;;;4.37;3.43;;;;;;;;;;5025237;28;20691;-65
2022/04/06 02:08:07;;;;;;;3.50;3.20;;;;;;;;;;5012664;28;20199;-65
2022/04/06 02:10:34;;;;;;;3.20;2.87;;;;;;;;;;5021447;28;20540;-65
2022/04/06 02:13:02;;;;;;;3.33;3.03;;;;;;;;;;5007118;28;20226;-66
2022/04/06 02:15:30;;;;;;;3.13;2.93;;;;;;;;;;5016094;28;20265;-66
2022/04/06 02:17:57;;;;;;;3.80;3.50;;;;;;;;;;5019334;28;20254;-65
2022/04/06 02:20:25;;;;;;;3.33;3.13;;;;;;;;;;5015798;28;20280;-64
2022/04/06 02:22:52;;;;;;;2.97;2.77;;;;;;;;;;5019111;28;20230;-66
2022/04/06 02:25:19;;;;;;;3.40;3.17;;;;;;;;;;5018470;28;20715;-66
2022/04/06 02:27:51;;;;;;;3.07;2.87;;;;;;;;;;5013592;28;20275;-65
2022/04/06 02:30:19;;;;;;;3.20;3.00;;;;;;;;;;5018960;28;20248;-64
2022/04/06 02:32:46;;;;;;;3.40;3.10;;;;;;;;;;5016804;28;20616;-65
2022/04/06 02:35:14;;;;;;;3.70;3.40;;;;;;;;;;5020940;28;20207;-66
2022/04/06 02:37:43;;;;;;;4.23;3.27;;;;;;;;;;5021932;28;20615;-65
2022/04/06 02:40:13;;;;;;;3.40;3.20;;;;;;;;;;5015279;28;21316;-65
2022/04/06 02:42:41;;;;;;;3.53;3.33;;;;;;;;;;5019872;28;20602;-65
2022/04/06 02:45:08;;;;;;;3.60;3.30;;;;;;;;;;5016034;28;20203;-65
2022/04/06 02:47:36;;;;;;;3.67;3.23;;;;;;;;;;5014191;28;20293;-66
2022/04/06 02:50:05;;;;;;;4.00;3.60;;;;;;;;;;5015999;28;20843;-65
2022/04/06 02:52:32;;;;;;;3.93;3.63;;;;;;;;;;5023064;28;20242;-65
2022/04/06 02:54:59;;;;;;;3.70;3.40;;;;;;;;;;5015984;28;20207;-66
2022/04/06 02:57:27;;;;;;;3.70;3.30;;;;;;;;;;5014862;28;20259;-64
2022/04/06 02:59:54;;;;;;;4.97;3.80;;;;;;;;;;5019477;28;20241;-64
2022/04/06 03:02:22;;;;;;;4.03;3.60;;;;;;;;;;5024093;28;20230;-65
2022/04/06 03:04:49;;;;;;;3.50;3.30;;;;;;;;;;5021590;28;20205;-66
2022/04/06 03:07:20;;;;;;;3.80;3.50;;;;;;;;;;5017335;28;20270;-66
2022/04/06 03:09:47;;;;;;;7.10;4.00;;;;;;;;;;5022363;28;20206;-65
2022/04/06 03:12:15;;;;;;;4.87;4.47;;;;;;;;;;5027749;28;20233;-65
2022/04/06 03:14:42;;;;;;;4.20;3.80;;;;;;;;;;5022903;28;20232;-65
2022/04/06 03:17:09;;;;;;;3.80;3.50;;;;;;;;;;5019069;28;20215;-66
2022/04/06 03:19:37;;;;;;;3.53;3.33;;;;;;;;;;5020836;28;20238;-65
2022/04/06 03:22:04;;;;;;;3.70;3.40;;;;;;;;;;5013752;28;20220;-63
2022/04/06 03:24:32;;;;;;;3.90;3.60;;;;;;;;;;5032334;28;20203;-63
2022/04/06 03:26:59;;;;;;;14.83;10.13;;;;;;;;;;5025889;28;20740;-65
2022/04/06 03:29:27;;;;;;;14.67;9.70;;;;;;;;;;5024672;28;20214;-65
2022/04/06 03:31:54;;;;;;;40.37;22.43;;;;;;;;;;5019520;28;20227;-65
2022/04/06 03:34:21;;;;;;;27.90;17.93;;;;;;;;;;5024489;28;20247;-65
2022/04/06 03:36:49;;;;;;;15.83;12.50;;;;;;;;;;5011023;28;20626;-68
2022/04/06 03:39:16;;;;;;;9.70;8.70;;;;;;;;;;5017815;28;20226;-65
2022/04/06 03:41:44;;;;;;;6.53;5.93;;;;;;;;;;5015401;28;20223;-66
2022/04/06 03:44:11;;;;;;;5.77;5.27;;;;;;;;;;5019457;28;20341;-65
2022/04/06 03:46:38;;;;;;;5.10;4.67;;;;;;;;;;5016407;28;21335;-65
2022/04/06 03:49:07;;;;;;;5.93;5.00;;;;;;;;;;5018485;28;20240;-68
2022/04/06 03:51:35;;;;;;;6.57;5.03;;;;;;;;;;5034548;28;20281;-65
2022/04/06 03:54:03;;;;;;;12.80;9.13;;;;;;;;;;5016039;28;20214;-65
2022/04/06 03:56:30;;;;;;;11.33;8.50;;;;;;;;;;5020914;28;20238;-65
2022/04/06 03:58:58;;;;;;;17.00;12.00;;;;;;;;;;5035188;28;20660;-65
2022/04/06 04:01:25;;;;;;;28.93;20.47;;;;;;;;;;5027517;28;20627;-66
2022/04/06 04:03:53;;;;;;;17.07;13.30;;;;;;;;;;5014590;28;20857;-65
2022/04/06 04:06:20;;;;;;;7.63;6.40;;;;;;;;;;5020228;28;20298;-67
2022/04/06 04:08:48;;;;;;;6.57;5.23;;;;;;;;;;5022102;28;20261;-64
2022/04/06 04:11:15;;;;;;;5.97;5.33;;;;;;;;;;5015858;28;20281;-66
2022/04/06 04:13:43;;;;;;;4.87;4.47;;;;;;;;;;5020120;28;20277;-65
2022/04/06 04:16:10;;;;;;;4.87;4.47;;;;;;;;;;5024602;28;20293;-66
2022/04/06 04:18:38;;;;;;;5.10;4.70;;;;;;;;;;5002835;28;20199;-66
2022/04/06 04:23:51;;;;;;;5.10;4.60;;;;;;;;;;5010682;28;20273;-66
2022/04/06 04:26:19;;;;;;;5.20;4.80;;;;;;;;;;5014853;28;20210;-68
2022/04/06 04:28:46;;;;;;;5.03;4.60;;;;;;;;;;5020745;28;20207;-68
2022/04/06 04:31:13;;;;;;;5.37;4.97;;;;;;;;;;5015262;28;20234;-66
2022/04/06 04:33:41;;;;;;;4.83;4.43;;;;;;;;;;5020275;28;20206;-63
2022/04/06 04:36:08;;;;;;;5.10;4.67;;;;;;;;;;5008338;28;21689;-66
2022/04/06 04:38:38;;;;;;;12.07;10.10;;;;;;;;;;5015715;28;20211;-65
2022/04/06 04:41:09;;;;;;;11.67;9.80;;;;;;;;;;5016815;28;20238;-64
2022/04/06 04:43:36;;;;;;;14.17;10.63;;;;;;;;;;5013825;28;20254;-66
2022/04/06 04:46:04;;;;;;;12.40;9.00;;;;;;;;;;5010794;28;20661;-64
2022/04/06 04:48:32;;;;;;;9.03;7.47;;;;;;;;;;5008077;28;20279;-64
2022/04/06 04:51:00;;;;;;;8.37;7.50;;;;;;;;;;5015497;28;20203;-64
2022/04/06 04:53:27;;;;;;;7.07;6.37;;;;;;;;;;5012234;28;20285;-66
2022/04/06 04:55:55;;;;;;;7.03;6.33;;;;;;;;;;5009286;28;20681;-66
2022/04/06 04:58:22;;;;;;;7.60;6.83;;;;;;;;;;5013552;28;20211;-65
2022/04/06 05:00:50;;;;;;;7.47;6.63;;;;;;;;;;5015683;28;20713;-66
2022/04/06 05:03:20;;;;;;;6.40;5.80;;;;;;;;;;5034884;28;20285;-63
2022/04/06 05:05:51;;;;;;;5.87;5.30;;;;;;;;;;5038892;28;20214;-62
2022/04/06 05:08:25;;;;;;;7.03;5.20;;;;;;;;;;5023811;28;20616;-64
2022/04/06 05:10:52;;;;;;;5.87;5.00;;;;;;;;;;5012621;28;20214;-67
2022/04/06 05:13:20;;;;;;;6.20;5.40;;;;;;;;;;5015562;28;20281;-66
2022/04/06 05:15:49;;;;;;;5.50;5.00;;;;;;;;;;5008432;28;20265;-65
2022/04/06 05:18:16;;;;;;;5.43;4.93;;;;;;;;;;5016455;28;20293;-66
2022/04/06 05:20:45;;;;;;;5.90;5.40;;;;;;;;;;5020202;28;20742;-63
2022/04/06 05:23:12;;;;;;;5.10;4.70;;;;;;;;;;5021087;28;20226;-67
2022/04/06 05:25:39;;;;;;;6.30;5.77;;;;;;;;;;5011629;28;20231;-65
2022/04/06 05:28:08;;;;;;;6.37;5.77;;;;;;;;;;5009349;28;20633;-66
2022/04/06 05:30:38;;;;;;;5.70;5.23;;;;;;;;;;5019922;28;20211;-65
2022/04/06 05:33:05;;;;;;;6.93;6.23;;;;;;;;;;5019500;28;20231;-64
2022/04/06 05:35:33;;;;;;;7.10;6.50;;;;;;;;;;5020020;28;20207;-66
2022/04/06 05:38:00;;;;;;;8.90;6.20;;;;;;;;;;5019463;28;20199;-65
2022/04/06 05:40:28;;;;;;;7.13;6.07;;;;;;;;;;5017797;28;20646;-66
2022/04/06 05:42:56;;;;;;;5.90;5.23;;;;;;;;;;5010610;28;20772;-68
2022/04/06 05:45:23;;;;;;;5.77;5.27;;;;;;;;;;5013466;28;20301;-67
2022/04/06 05:47:51;;;;;;;5.73;5.23;;;;;;;;;;5013207;28;20203;-67
2022/04/06 05:50:18;;;;;;;5.97;5.47;;;;;;;;;;5011028;28;20202;-67
2022/04/06 05:52:46;;;;;;;5.30;4.80;;;;;;;;;;5016387;28;20227;-67
2022/04/06 05:55:13;;;;;;;5.27;4.87;;;;;;;;;;5022927;28;20211;-67
2022/04/06 05:57:41;;;;;;;4.60;4.20;;;;;;;;;;5023140;28;20211;-65
2022/04/06 06:00:09;;;;;;;5.37;4.87;;;;;;;;;;5016281;28;20237;-66
2022/04/06 06:02:36;;;;;;;5.30;4.80;;;;;;;;;;5019489;28;20234;-68
2022/04/06 06:05:04;;;;;;;5.30;4.80;;;;;;;;;;5007586;28;20249;-64
2022/04/06 06:07:32;;;;;;;4.80;4.40;;;;;;;;;;5014727;28;20233;-62
2022/04/06 06:09:59;;;;;;;4.67;4.23;;;;;;;;;;5017765;28;20218;-65
2022/04/06 06:12:26;;;;;;;4.63;4.23;;;;;;;;;;5017637;28;20281;-64
2022/04/06 06:14:54;;;;;;;4.47;4.13;;;;;;;;;;5020101;28;20254;-65
2022/04/06 06:17:21;;;;;;;4.90;4.13;;;;;;;;;;5012219;28;20215;-65
2022/04/06 06:19:48;;;;;;;4.60;4.20;;;;;;;;;;5019192;28;20306;-64
2022/04/06 06:22:16;;;;;;;4.60;4.20;;;;;;;;;;5026116;28;20233;-65
2022/04/06 06:24:43;;;;;;;5.10;4.07;;;;;;;;;;5024895;28;20199;-64
2022/04/06 06:27:12;;;;;;;4.60;4.20;;;;;;;;;;5018125;28;20222;-64
2022/04/06 06:29:39;;;;;;;4.53;4.13;;;;;;;;;;5017618;28;20215;-67
2022/04/06 06:32:07;;;;;;;4.50;4.10;;;;;;;;;;5022543;28;20296;-65
2022/04/06 06:34:34;;;;;;;3.83;3.53;;;;;;;;;;5016336;28;20203;-67
2022/04/06 06:37:02;;;;;;;3.83;3.50;;;;;;;;;;5017812;28;20206;-65
2022/04/06 06:39:29;;;;;;;3.87;3.57;;;;;;;;;;5017200;28;20207;-64
2022/04/06 06:41:57;;;;;;;3.37;3.17;;;;;;;;;;5017541;28;20285;-67
2022/04/06 06:44:24;;;;;;;3.90;3.60;;;;;;;;;;5020173;28;20207;-66
2022/04/06 06:46:51;;;;;;;4.00;3.70;;;;;;;;;;5023029;28;20199;-65
2022/04/06 06:49:22;;;;;;;3.70;3.40;;;;;;;;;;5026416;28;20207;-65
2022/04/06 06:51:49;;;;;;;3.60;3.30;;;;;;;;;;5025739;28;20229;-63
2022/04/06 06:54:17;;;;;;;3.93;3.63;;;;;;;;;;5023302;28;20666;-66
2022/04/06 06:56:44;;;;;;;3.53;3.33;;;;;;;;;;5019373;28;20209;-65
2022/04/06 06:59:11;;;;;;;3.37;3.13;;;;;;;;;;5031566;28;20219;-66
2022/04/06 07:01:39;;;;;;;3.80;3.03;;;;;;;;;;5017955;28;20242;-66
2022/04/06 07:04:22;;;;;;;3.23;3.03;;;;;;;;;;5011514;28;20211;-65
2022/04/06 07:06:50;;;;;;;3.70;3.30;;;;;;;;;;5013316;28;20199;-66
2022/04/06 07:09:18;;;;;;;3.70;3.40;;;;;;;;;;5017309;28;20211;-66
2022/04/06 07:11:46;;;;;;;3.17;2.97;;;;;;;;;;5013618;28;20219;-65
2022/04/06 07:14:15;;;;;;;3.40;3.10;;;;;;;;;;5004673;28;20225;-64
2022/04/06 07:16:43;;;;;;;3.33;3.13;;;;;;;;;;5019283;28;20210;-65
2022/04/06 07:19:10;;;;;;;2.73;2.53;;;;;;;;;;5025907;28;20218;-65
2022/04/06 07:21:38;;;;;;;3.40;2.60;;;;;;;;;;5021837;28;20230;-65
2022/04/06 07:24:05;;;;;;;2.60;2.40;;;;;;;;;;5017383;28;20237;-65
2022/04/06 07:26:33;;;;;;;2.70;2.50;;;;;;;;;;5033698;28;20206;-65
2022/04/06 07:29:00;;;;;;;3.63;2.10;;;;;;;;;;5022105;28;20215;-66
2022/04/06 07:31:27;;;;;;;2.40;2.30;;;;;;;;;;5022389;28;20203;-63
2022/04/06 07:33:55;;;;;;;2.43;2.20;;;;;;;;;;5021134;28;20615;-65
2022/04/06 07:36:23;;;;;;;2.37;2.27;;;;;;;;;;5019201;28;20679;-65
2022/04/06 07:38:50;;;;;;;2.37;1.93;;;;;;;;;;5017492;28;20242;-65
2022/04/06 07:41:17;;;;;;;2.03;1.90;;;;;;;;;;5014178;28;20222;-65
2022/04/06 07:43:45;;;;;;;2.50;1.97;;;;;;;;;;5014052;28;20210;-66
2022/04/06 07:46:13;;;;;;;2.93;2.13;;;;;;;;;;5015787;28;20221;-64
2022/04/06 07:48:41;;;;;;;2.43;2.33;;;;;;;;;;5020540;28;20210;-65
2022/04/06 07:51:08;;;;;;;1.70;1.60;;;;;;;;;;5016714;28;20222;-65
2022/04/06 07:53:36;;;;;;;1.50;1.40;;;;;;;;;;5018098;28;20226;-65
2022/04/06 07:56:03;;;;;;;1.57;1.50;;;;;;;;;;5015478;28;20204;-65
2022/04/06 07:58:31;;;;;;;1.30;1.30;;;;;;;;;;5019895;28;20208;-65
2022/04/06 08:01:02;;;;;;;11.23;8.10;;;;;;;;;;5020004;28;22459;-66
2022/04/06 08:03:30;;;;;;;1.60;1.50;;;;;;;;;;5025377;28;20226;-66
2022/04/06 08:05:58;;;;;;;1.50;1.50;;;;;;;;;;5028494;28;20213;-66
2022/04/06 08:08:25;;;;;;;1.50;1.40;;;;;;;;;;5022564;28;20823;-66
2022/04/06 08:10:53;;;;;;;1.43;1.33;;;;;;;;;;5017446;28;20238;-65
2022/04/06 08:13:20;;;;;;;1.03;1.03;;;;;;;;;;5020773;28;20463;-65
2022/04/06 08:15:48;;;;;;;1.53;0.90;;;;;;;;;;5021960;28;20249;-64
2022/04/06 08:18:16;;;;;;;0.93;0.93;;;;;;;;;;5030638;28;20792;-66
2022/04/06 08:20:43;;;;;;;0.90;0.90;;;;;;;;;;5023333;28;20254;-65
2022/04/06 08:23:11;;;;;;;0.80;0.80;;;;;;;;;;5019823;28;20230;-64
2022/04/06 08:25:39;;;;;;;0.97;0.87;;;;;;;;;;5018933;28;20218;-65
2022/04/06 08:28:07;;;;;;;0.90;0.90;;;;;;;;;;5016080;28;20209;-64
2022/04/06 08:30:39;;;;;;;1.90;1.00;;;;;;;;;;5021804;28;20210;-65
2022/04/06 08:33:08;;;;;;;0.83;0.83;;;;;;;;;;5012550;28;20319;-64
2022/04/06 08:35:36;;;;;;;1.10;1.00;;;;;;;;;;5021825;28;20207;-64
2022/04/06 08:38:03;;;;;;;0.90;0.90;;;;;;;;;;5016717;28;20612;-66
2022/04/06 08:40:32;;;;;;;0.97;0.80;;;;;;;;;;5021456;28;20275;-65
2022/04/06 08:43:00;;;;;;;0.90;0.90;;;;;;;;;;5017628;28;20222;-65
2022/04/06 08:45:28;;;;;;;0.80;0.80;;;;;;;;;;5017271;28;22218;-65
2022/04/06 08:47:57;;;;;;;0.90;0.90;;;;;;;;;;5020975;28;20195;-66
2022/04/06 08:50:27;;;;;;;1.10;1.00;;;;;;;;;;5021604;28;20574;-66
2022/04/06 08:52:56;;;;;;;0.80;0.80;;;;;;;;;;5022994;28;20237;-65
2022/04/06 08:55:28;;;;;;;1.00;0.90;;;;;;;;;;5015951;28;20210;-65
2022/04/06 08:57:56;;;;;;;0.90;0.90;;;;;;;;;;5016303;28;20203;-65
2022/04/06 09:00:26;;;;;;;1.00;1.00;;;;;;;;;;5020002;28;20290;-65
2022/04/06 09:02:53;;;;;;;0.90;0.90;;;;;;;;;;5022963;28;20223;-66
2022/04/06 09:05:22;;;;;;;1.33;0.83;;;;;;;;;;5030140;28;20221;-65
2022/04/06 09:07:51;;;;;;;1.27;0.90;;;;;;;;;;5010644;28;20206;-66
2022/04/06 09:10:33;;;;;;;1.37;1.27;;;;;;;;;;5016284;28;20289;-65
2022/04/06 09:13:11;;;;;;;1.00;1.00;;;;;;;;;;5022624;28;21100;-66
2022/04/06 09:15:39;;;;;;;1.47;1.07;;;;;;;;;;5018829;28;20207;-64
2022/04/06 09:18:07;;;;;;;1.27;1.23;;;;;;;;;;5019204;28;20677;-65
2022/04/06 09:20:35;;;;;;;1.10;1.00;;;;;;;;;;5012665;28;20909;-67
2022/04/06 09:23:03;;;;;;;0.90;0.90;;;;;;;;;;5019715;28;20641;-65
2022/04/06 09:25:38;;;;;;;1.10;1.00;;;;;;;;;;5010528;28;20214;-63
2022/04/06 09:28:06;;;;;;;1.00;1.00;;;;;;;;;;5018750;28;20213;-65
2022/04/06 09:30:35;;;;;;;0.93;0.90;;;;;;;;;;5019445;28;20208;-63
2022/04/06 09:33:03;;;;;;;0.90;0.90;;;;;;;;;;5022767;28;20297;-66
2022/04/06 09:35:34;;;;;;;0.90;0.90;;;;;;;;;;5024288;28;20660;-64
2022/04/06 09:38:10;;;;;;;0.80;0.80;;;;;;;;;;5023718;28;20206;-66
2022/04/06 09:40:39;;;;;;;0.97;0.97;;;;;;;;;;5028767;28;20229;-65
2022/04/06 09:43:07;;;;;;;0.90;0.90;;;;;;;;;;5017065;28;20294;-65
2022/04/06 09:48:21;;;;;;;0.87;0.87;;;;;;;;;;5015955;28;20222;-66
2022/04/06 09:50:56;;;;;;;1.67;0.90;;;;;;;;;;5017680;28;20706;-64
2022/04/06 09:53:27;;;;;;;0.70;0.70;;;;;;;;;;5015253;28;20267;-65
2022/04/06 09:55:55;;;;;;;1.13;0.80;;;;;;;;;;5012348;28;20219;-66
2022/04/06 09:58:27;;;;;;;0.70;0.70;;;;;;;;;;5014627;28;20207;-65
2022/04/06 10:00:55;;;;;;;0.80;0.70;;;;;;;;;;5023639;28;20240;-65
2022/04/06 10:03:23;;;;;;;0.77;0.73;;;;;;;;;;5018453;28;20218;-65
2022/04/06 10:05:52;;;;;;;0.70;0.70;;;;;;;;;;5017188;28;20211;-65
2022/04/06 10:08:22;;;;;;;0.70;0.70;;;;;;;;;;5022820;28;20211;-63
2022/04/06 10:10:53;;;;;;;1.43;0.80;;;;;;;;;;5017691;28;20264;-66
2022/04/06 10:13:20;;;;;;;0.80;0.80;;;;;;;;;;5020461;28;20602;-65
2022/04/06 10:16:11;;;;;;;0.90;0.90;;;;;;;;;;5016763;28;20215;-64
2022/04/06 10:18:39;;;;;;;0.83;0.83;;;;;;;;;;5018425;28;20211;-66
2022/04/06 10:21:20;;;;;;;1.40;1.30;;;;;;;;;;5021369;28;20223;-66
2022/04/06 10:24:06;;;;;;;0.80;0.80;;;;;;;;;;5017811;28;20221;-65
2022/04/06 10:26:40;;;;;;;0.87;0.87;;;;;;;;;;5012111;28;20257;-64
2022/04/06 10:29:07;;;;;;;0.87;0.87;;;;;;;;;;5020064;28;20685;-65
2022/04/06 10:31:36;;;;;;;0.57;0.57;;;;;;;;;;5018200;28;20603;-65
2022/04/06 10:34:23;;;;;;;1.80;0.70;;;;;;;;;;5024791;28;20207;-66
2022/04/06 10:37:05;;;;;;;0.70;0.70;;;;;;;;;;5013371;28;20230;-67
2022/04/06 10:39:33;;;;;;;0.97;0.80;;;;;;;;;;5005878;28;20215;-64
2022/04/06 10:42:13;;;;;;;0.77;0.77;;;;;;;;;;5016433;28;20910;-64
2022/04/06 10:44:41;;;;;;;0.70;0.70;;;;;;;;;;4998331;28;20604;-65
2022/04/06 10:47:09;;;;;;;3.80;0.77;;;;;;;;;;4998225;28;20223;-67
2022/04/06 10:49:37;;;;;;;0.70;0.70;;;;;;;;;;4996737;28;20751;-63
2022/04/06 10:52:31;;;;;;;0.60;0.60;;;;;;;;;;5018764;28;20237;-64
2022/04/06 10:55:07;;;;;;;1.33;0.87;;;;;;;;;;5020016;28;20207;-66
2022/04/06 10:57:53;;;;;;;0.50;0.50;;;;;;;;;;5032911;28;20233;-64
2022/04/06 11:00:21;;;;;;;0.67;0.67;;;;;;;;;;5032595;28;20341;-66
2022/04/06 11:02:50;;;;;;;1.20;0.90;;;;;;;;;;5018512;28;20231;-66
2022/04/06 11:05:36;;;;;;;0.87;0.60;;;;;;;;;;5022131;28;20666;-64
2022/04/06 11:10:50;;;;;;;1.60;0.53;;;;;;;;;;5015661;28;20771;-66
2022/04/06 11:13:26;;;;;;;0.70;0.70;;;;;;;;;;5019131;28;21077;-66
2022/04/06 11:15:54;;;;;;;0.98;0.52;;;;;;;;;;5025193;28;20207;-66
2022/04/06 11:18:40;;;;;;;0.50;0.50;;;;;;;;;;5022987;28;20203;-66
2022/04/06 11:21:07;;;;;;;0.50;0.50;;;;;;;;;;5024872;28;20682;-64
2022/04/06 11:23:35;;;;;;;1.75;0.60;;;;;;;;;;5023203;28;20251;-65
2022/04/06 11:26:02;;;;;;;0.50;0.50;;;;;;;;;;5025235;28;20206;-66
2022/04/06 11:28:30;;;;;;;0.60;0.60;;;;;;;;;;5024065;28;20239;-65
2022/04/06 11:31:01;;;;;;;0.73;0.60;;;;;;;;;;5016049;28;20692;-65
2022/04/06 11:33:38;;;;;;;0.80;0.80;;;;;;;;;;5019116;28;20241;-66
2022/04/06 11:36:13;;;;;;;0.50;0.50;;;;;;;;;;5021538;28;20205;-66
2022/04/06 11:38:40;;;;;;;0.67;0.67;;;;;;;;;;5026792;28;20256;-65
2022/04/06 11:41:07;;;;;;;1.30;0.60;;;;;;;;;;5030443;28;20246;-65
2022/04/06 11:43:46;;;;;;;0.60;0.60;;;;;;;;;;5014124;28;20292;-66
2022/04/06 11:46:13;;;;;;;0.60;0.60;;;;;;;;;;5011794;28;20206;-64
2022/04/06 11:48:42;;;;;;;0.40;0.40;;;;;;;;;;5034603;28;20294;-65
2022/04/06 11:51:09;;;;;;;0.63;0.40;;;;;;;;;;5021045;28;20215;-65
2022/04/06 11:53:37;;;;;;;0.50;0.50;;;;;;;;;;5014535;28;20357;-66
2022/04/06 11:56:04;;;;;;;0.52;0.52;;;;;;;;;;5018575;28;20570;-65
2022/04/06 11:58:32;;;;;;;0.43;0.43;;;;;;;;;;5035316;28;20242;-65
2022/04/06 12:01:11;;;;;;;0.50;0.50;;;;;;;;;;5013503;28;20570;-66
2022/04/06 12:03:39;;;;;;;0.40;0.40;;;;;;;;;;5023026;28;20226;-65
2022/04/06 12:06:09;;;;;;;0.40;0.40;;;;;;;;;;5019287;28;20676;-66
2022/04/06 12:08:38;;;;;;;0.40;0.40;;;;;;;;;;5024786;28;20218;-65
2022/04/06 12:11:05;;;;;;;0.60;0.60;;;;;;;;;;5011864;28;20688;-66
2022/04/06 12:13:34;;;;;;;0.65;0.60;;;;;;;;;;5024828;28;20819;-67
2022/04/06 12:16:02;;;;;;;0.65;0.60;;;;;;;;;;5011590;28;20203;-66
2022/04/06 12:18:30;;;;;;;4.13;3.47;;;;;;;;;;5025722;28;20206;-65
2022/04/06 12:20:59;;;;;;;2.90;2.50;;;;;;;;;;5019511;28;20218;-64
2022/04/06 12:23:27;;;;;;;2.85;1.98;;;;;;;;;;5022114;28;20241;-66
2022/04/06 12:26:01;;;;;;;2.90;2.35;;;;;;;;;;5019786;28;20671;-64
2022/04/06 12:28:29;;;;;;;2.22;1.35;;;;;;;;;;5022491;28;20560;-66
2022/04/06 12:31:00;;;;;;;1.10;1.10;;;;;;;;;;5013947;28;20194;-66
2022/04/06 12:33:47;;;;;;;4.05;3.65;;;;;;;;;;5015028;28;20218;-66
2022/04/06 12:36:15;;;;;;;0.88;0.80;;;;;;;;;;5021385;28;20211;-66
2022/04/06 12:38:57;;;;;;;0.90;0.85;;;;;;;;;;5037486;28;20240;-66
2022/04/06 12:41:25;;;;;;;1.10;1.10;;;;;;;;;;5020798;28;20237;-67
2022/04/06 12:43:53;;;;;;;0.50;0.50;;;;;;;;;;5013432;28;20199;-64
2022/04/06 12:46:37;;;;;;;0.55;0.50;;;;;;;;;;5020331;28;20211;-66
2022/04/06 12:49:18;;;;;;;0.68;0.68;;;;;;;;;;5014846;28;20582;-67
2022/04/06 12:51:45;;;;;;;0.60;0.60;;;;;;;;;;5025387;28;20226;-66
2022/04/06 12:54:13;;;;;;;0.57;0.57;;;;;;;;;;5024692;28;20611;-66
2022/04/06 12:57:07;;;;;;;0.80;0.80;;;;;;;;;;5025935;28;20280;-65
2022/04/06 12:59:37;;;;;;;0.60;0.60;;;;;;;;;;5005848;28;20207;-66
2022/04/06 13:02:05;;;;;;;0.60;0.60;;;;;;;;;;5014301;28;20222;-67
2022/04/06 13:04:38;;;;;;;1.00;0.80;;;;;;;;;;5019976;28;20286;-64
2022/04/06 13:07:07;;;;;;;0.88;0.80;;;;;;;;;;5016928;28;20196;-64
2022/04/06 13:09:56;;;;;;;0.50;0.50;;;;;;;;;;5021004;28;20283;-66
2022/04/06 13:12:25;;;;;;;1.40;1.40;;;;;;;;;;5020351;28;20231;-64
2022/04/06 13:14:57;;;;;;;0.70;0.70;;;;;;;;;;5027791;28;20214;-66
2022/04/06 13:17:24;;;;;;;1.10;1.10;;;;;;;;;;5030164;28;20202;-66
2022/04/06 13:19:52;;;;;;;1.00;1.00;;;;;;;;;;5010112;28;20211;-65
2022/04/06 13:22:19;;;;;;;0.60;0.60;;;;;;;;;;5026845;28;20446;-66
2022/04/06 13:24:47;;;;;;;0.70;0.70;;;;;;;;;;5017328;28;20211;-65
2022/04/06 13:27:14;;;;;;;0.60;0.60;;;;;;;;;;5022267;28;20293;-65
2022/04/06 13:29:42;;;;;;;1.92;1.83;;;;;;;;;;5021710;28;20214;-65
2022/04/06 13:32:10;;;;;;;2.60;1.88;;;;;;;;;;5018392;28;20235;-65
2022/04/06 13:34:37;;;;;;;0.70;0.70;;;;;;;;;;5017897;28;20219;-66
2022/04/06 13:37:05;;;;;;;0.68;0.68;;;;;;;;;;5019364;28;20207;-65
2022/04/06 13:39:32;;;;;;;0.63;0.63;;;;;;;;;;5021708;28;20456;-67
2022/04/06 13:42:07;;;;;;;2.00;1.90;;;;;;;;;;5017965;28;20234;-65
2022/04/06 13:44:34;;;;;;;2.33;2.13;;;;;;;;;;5019105;28;20571;-64
2022/04/06 13:47:03;;;;;;;1.55;1.00;;;;;;;;;;5012733;28;20207;-65
2022/04/06 13:49:30;;;;;;;0.60;0.60;;;;;;;;;;5009065;28;20210;-65
2022/04/06 13:52:00;;;;;;;3.30;3.00;;;;;;;;;;5024044;28;20861;-66
2022/04/06 13:54:27;;;;;;;3.90;2.70;;;;;;;;;;5019568;28;20726;-65
2022/04/06 13:56:55;;;;;;;6.27;5.80;;;;;;;;;;5018750;28;20667;-63
2022/04/06 13:59:23;;;;;;;5.20;4.78;;;;;;;;;;5026074;28;20207;-64
2022/04/06 14:01:51;;;;;;;1.23;1.23;;;;;;;;;;5021718;28;20648;-63
2022/04/06 14:04:19;;;;;;;2.20;2.07;;;;;;;;;;5019106;28;20199;-64
2022/04/06 14:06:47;;;;;;;10.67;6.10;;;;;;;;;;5020943;28;20657;-65
2022/04/06 14:09:14;;;;;;;5.47;2.60;;;;;;;;;;5024235;28;20202;-64
2022/04/06 14:11:43;;;;;;;1.27;1.17;;;;;;;;;;5027834;28;20252;-64
2022/04/06 14:14:10;;;;;;;1.17;1.07;;;;;;;;;;5016007;28;20902;-67
2022/04/06 14:16:39;;;;;;;0.80;0.80;;;;;;;;;;5019805;28;20544;-65
2022/04/06 14:19:08;;;;;;;1.00;1.00;;;;;;;;;;5021055;28;20238;-66
2022/04/06 14:21:37;;;;;;;1.00;1.00;;;;;;;;;;5018540;28;20218;-65
2022/04/06 14:24:05;;;;;;;1.00;1.00;;;;;;;;;;5016043;28;20198;-66
2022/04/06 14:26:33;;;;;;;0.90;0.90;;;;;;;;;;5024710;28;20210;-68
2022/04/06 14:29:01;;;;;;;0.87;0.87;;;;;;;;;;5009855;28;20291;-64
2022/04/06 14:31:29;;;;;;;0.70;0.70;;;;;;;;;;5025428;28;20704;-63
2022/04/06 14:33:56;;;;;;;0.83;0.70;;;;;;;;;;5020225;28;20264;-65
2022/04/06 14:36:24;;;;;;;1.03;0.93;;;;;;;;;;5026920;28;20209;-65
2022/04/06 14:38:51;;;;;;;0.60;0.60;;;;;;;;;;5015645;28;20288;-64
2022/04/06 14:41:19;;;;;;;2.40;1.23;;;;;;;;;;5012412;28;20211;-68
2022/04/06 14:43:46;;;;;;;7.10;6.70;;;;;;;;;;5016803;28;20234;-69
2022/04/06 14:46:13;;;;;;;1.70;1.70;;;;;;;;;;5007352;28;20303;-67
2022/04/06 14:48:41;;;;;;;3.67;3.20;;;;;;;;;;5018481;28;20210;-68
2022/04/06 14:51:09;;;;;;;6.60;4.40;;;;;;;;;;5011908;28;20672;-64
2022/04/06 14:53:36;;;;;;;1.77;1.70;;;;;;;;;;5018224;28;20223;-67
2022/04/06 14:56:03;;;;;;;0.80;0.80;;;;;;;;;;5026312;28;20258;-65
2022/04/06 14:58:32;;;;;;;1.35;1.35;;;;;;;;;;5019965;28;20208;-66
2022/04/06 15:00:59;;;;;;;1.33;0.90;;;;;;;;;;5012931;28;20337;-66
2022/04/06 15:03:26;;;;;;;0.88;0.88;;;;;;;;;;5018838;28;20289;-66
2022/04/06 15:05:54;;;;;;;1.00;1.00;;;;;;;;;;5000829;28;20210;-67